Time;durP1;ratioP1;P1;durP2;ratioP2;P2;SDS_P1;SDS_P2;PMS_P1;PMS_P2;Temp;Humidity;BMP_temperature;BMP_pressure;BME280_temperature;BME280_humidity;BME280_pressure;Samples;Min_cycle;Max_cycle;Signal;HPM_P1;HPM_P2
2022/11/09 00:01:04;;;;;;;5.30;1.40;;;12.10;99.90;;;;;;5093730;28;20048;-59
2022/11/09 00:03:30;;;;;;;4.07;1.92;;;12.10;99.90;;;;;;5093982;28;20055;-59
2022/11/09 00:06:00;;;;;;;4.55;1.73;;;12.10;99.90;;;;;;5093020;28;20044;-59
2022/11/09 00:08:30;;;;;;;5.18;1.75;;;12.00;99.90;;;;;;5093528;28;20039;-59
2022/11/09 00:11:06;;;;;;;;;;;12.10;99.90;;;;;;5093685;28;20105;-59
2022/11/09 00:13:41;;;;;;;5.63;2.28;;;12.10;99.90;;;;;;5093738;28;19922;-59
2022/11/09 00:16:10;;;;;;;4.70;2.20;;;12.10;99.90;;;;;;5093381;28;20046;-59
2022/11/09 00:18:40;;;;;;;;;;;12.20;99.90;;;;;;5093923;28;20101;-60
2022/11/09 00:21:10;;;;;;;7.43;2.10;;;12.10;99.90;;;;;;5074980;28;19970;-59
2022/11/09 00:23:40;;;;;;;6.28;2.22;;;12.20;99.90;;;;;;5093571;28;20044;-59
2022/11/09 00:26:10;;;;;;;7.68;2.92;;;12.10;99.90;;;;;;5093507;28;20498;-59
2022/11/09 00:28:38;;;;;;;5.80;1.70;;;12.10;99.90;;;;;;5093197;28;20046;-59
2022/11/09 00:31:09;;;;;;;5.45;2.13;;;12.10;99.90;;;;;;5091997;28;20105;-59
2022/11/09 00:33:36;;;;;;;5.30;1.85;;;12.10;99.90;;;;;;5092614;28;20060;-59
2022/11/09 00:36:08;;;;;;;2.00;1.70;;;12.20;99.90;;;;;;5093346;28;20040;-60
2022/11/09 00:38:36;;;;;;;5.88;1.55;;;12.20;99.90;;;;;;5092801;28;20036;-59
2022/11/09 00:41:07;;;;;;;2.80;1.60;;;12.10;99.90;;;;;;5093161;28;20047;-59
2022/11/09 00:43:36;;;;;;;8.55;2.13;;;12.10;99.90;;;;;;5093091;28;20051;-59
2022/11/09 00:46:07;;;;;;;5.15;2.03;;;12.10;99.90;;;;;;5074984;28;20091;-59
2022/11/09 00:48:42;;;;;;;6.22;2.00;;;12.10;99.90;;;;;;5092907;28;20402;-59
2022/11/09 00:51:18;;;;;;;6.53;2.03;;;12.20;99.90;;;;;;5074920;28;20052;-59
2022/11/09 00:53:53;;;;;;;6.22;2.70;;;12.20;99.90;;;;;;5093283;28;20036;-59
2022/11/09 00:56:23;;;;;;;4.10;2.10;;;12.30;99.90;;;;;;5092837;28;20043;-59
2022/11/09 00:58:56;;;;;;;4.32;2.28;;;12.20;99.90;;;;;;5091970;28;20040;-59
2022/11/09 01:01:23;;;;;;;5.80;2.30;;;12.20;99.90;;;;;;5092513;28;20466;-59
2022/11/09 01:03:56;;;;;;;7.57;2.72;;;12.30;99.90;;;;;;5092803;28;20039;-59
2022/11/09 01:06:27;;;;;;;7.55;2.70;;;12.30;99.90;;;;;;5092051;28;20101;-59
2022/11/09 01:09:00;;;;;;;8.90;3.35;;;12.30;99.90;;;;;;5092131;28;20039;-59
2022/11/09 01:11:32;;;;;;;7.32;2.25;;;12.30;99.90;;;;;;5092726;28;20040;-59
2022/11/09 01:14:04;;;;;;;5.32;2.20;;;12.30;99.90;;;;;;5092578;28;20036;-59
2022/11/09 01:16:35;;;;;;;8.32;3.35;;;12.30;99.90;;;;;;5092364;28;20048;-59
2022/11/09 01:19:04;;;;;;;7.93;2.20;;;12.30;99.90;;;;;;5092183;28;20035;-59
2022/11/09 01:21:34;;;;;;;7.13;2.53;;;12.30;99.90;;;;;;5092443;28;20039;-59
2022/11/09 01:24:00;;;;;;;7.18;2.50;;;12.30;99.90;;;;;;5092254;28;20044;-59
2022/11/09 01:26:33;;;;;;;5.80;2.50;;;12.30;99.90;;;;;;5092049;28;20416;-59
2022/11/09 01:29:04;;;;;;;6.43;2.38;;;12.30;99.90;;;;;;5092211;28;20040;-59
2022/11/09 01:31:35;;;;;;;4.75;2.25;;;12.20;99.90;;;;;;5092594;28;20040;-60
2022/11/09 01:34:07;;;;;;;5.82;1.95;;;12.30;99.90;;;;;;5092503;28;20493;-59
2022/11/09 01:36:41;;;;;;;10.57;2.58;;;12.30;99.90;;;;;;5092318;28;20036;-59
2022/11/09 01:39:10;;;;;;;8.68;2.70;;;12.30;99.90;;;;;;5092053;28;20104;-59
2022/11/09 01:41:41;;;;;;;8.23;2.38;;;12.40;99.90;;;;;;5090868;28;20409;-59
2022/11/09 01:44:20;;;;;;;6.47;2.05;;;12.30;99.90;;;;;;5091830;28;20040;-59
2022/11/09 01:47:00;;;;;;;8.05;2.30;;;12.40;99.90;;;;;;5092123;28;20044;-59
2022/11/09 01:49:45;;;;;;;7.95;2.20;;;12.40;99.90;;;;;;5092052;28;20074;-59
2022/11/09 01:52:17;;;;;;;8.90;2.40;;;12.50;99.90;;;;;;5091377;28;20052;-59
2022/11/09 01:54:52;;;;;;;7.47;2.10;;;12.50;99.90;;;;;;5091756;28;20382;-59
2022/11/09 01:57:30;;;;;;;10.38;2.92;;;12.50;99.90;;;;;;5091640;28;20474;-59
2022/11/09 02:00:06;;;;;;;9.75;3.50;;;12.40;99.90;;;;;;5091844;28;20055;-59
2022/11/09 02:02:42;;;;;;;9.50;2.55;;;12.40;99.90;;;;;;5091844;28;20043;-60
2022/11/09 02:05:20;;;;;;;6.97;2.60;;;12.50;99.90;;;;;;5091839;28;20036;-59
2022/11/09 02:07:46;;;;;;;5.47;2.22;;;12.40;99.90;;;;;;5092266;28;20048;-59
2022/11/09 02:11:04;;;;;;;9.18;2.45;;;12.40;99.90;;;;;;5094407;28;20805;-60
2022/11/09 02:13:36;;;;;;;8.68;2.33;;;12.40;99.90;;;;;;4999558;28;20121;-59
2022/11/09 02:16:05;;;;;;;4.95;2.10;;;12.40;99.90;;;;;;5013756;28;20147;-60
2022/11/09 02:18:35;;;;;;;8.57;2.15;;;12.50;99.90;;;;;;5013495;28;20041;-60
2022/11/09 02:21:02;;;;;;;10.18;2.28;;;12.40;99.90;;;;;;5013521;28;20054;-59
2022/11/09 02:23:29;;;;;;;9.98;3.10;;;12.40;99.90;;;;;;5013740;28;20133;-59
2022/11/09 02:26:08;;;;;;;9.57;2.28;;;12.40;99.90;;;;;;5013721;28;20121;-59
2022/11/09 02:28:38;;;;;;;6.85;2.25;;;12.40;99.90;;;;;;5013642;28;20069;-59
2022/11/09 02:31:10;;;;;;;5.68;1.92;;;12.40;99.90;;;;;;5013467;28;20041;-59
2022/11/09 02:33:54;;;;;;;11.32;2.70;;;12.30;99.90;;;;;;5013633;28;20131;-60
2022/11/09 02:36:27;;;;;;;7.18;2.55;;;12.30;99.90;;;;;;5013580;28;20500;-60
2022/11/09 02:38:59;;;;;;;7.15;2.38;;;12.30;99.90;;;;;;5013662;28;20042;-59
2022/11/09 02:41:35;;;;;;;9.23;2.25;;;12.30;99.90;;;;;;5013325;28;20412;-60
2022/11/09 02:44:08;;;;;;;9.50;3.47;;;12.30;99.90;;;;;;5013261;28;20148;-59
2022/11/09 02:46:36;;;;;;;10.18;2.92;;;12.30;99.90;;;;;;5021282;28;20073;-59
2022/11/09 02:49:07;;;;;;;10.38;1.98;;;12.20;99.90;;;;;;5093490;28;20044;-60
2022/11/09 02:51:37;;;;;;;8.40;2.80;;;12.20;99.90;;;;;;5094968;28;20052;-59
2022/11/09 02:54:08;;;;;;;15.27;2.35;;;12.20;99.90;;;;;;5095291;28;20402;-59
2022/11/09 02:56:40;;;;;;;10.10;2.75;;;12.20;99.90;;;;;;5094953;28;20470;-60
2022/11/09 02:59:12;;;;;;;8.35;2.30;;;12.20;99.90;;;;;;5095013;28;20513;-59
2022/11/09 03:01:46;;;;;;;5.95;2.30;;;12.10;99.90;;;;;;5095025;28;20047;-59
2022/11/09 03:04:12;;;;;;;6.40;1.95;;;12.20;99.90;;;;;;5095125;28;20103;-59
2022/11/09 03:06:43;;;;;;;10.73;2.38;;;12.10;99.90;;;;;;5094709;28;20051;-59
2022/11/09 03:09:12;;;;;;;6.80;2.10;;;12.10;99.90;;;;;;5094828;28;20040;-59
2022/11/09 03:11:41;;;;;;;8.48;2.60;;;12.10;99.90;;;;;;5076519;28;20144;-59
2022/11/09 03:14:08;;;;;;;8.40;2.47;;;12.10;99.90;;;;;;5095011;28;20032;-59
2022/11/09 03:16:40;;;;;;;10.85;2.05;;;12.10;99.90;;;;;;5094048;28;20048;-59
2022/11/09 03:19:12;;;;;;;11.20;2.42;;;12.10;99.90;;;;;;5094859;28;20040;-59
2022/11/09 03:21:45;;;;;;;10.13;2.15;;;12.10;99.90;;;;;;5093919;28;20109;-60
2022/11/09 03:24:17;;;;;;;9.27;3.30;;;12.10;99.90;;;;;;5094603;28;20050;-59
2022/11/09 03:26:46;;;;;;;12.15;3.45;;;12.00;99.90;;;;;;5093253;28;20417;-59
2022/11/09 03:29:16;;;;;;;10.85;2.83;;;12.00;99.90;;;;;;5092444;28;20144;-59
2022/11/09 03:31:46;;;;;;;8.52;2.28;;;12.00;99.90;;;;;;5094943;28;20040;-59
2022/11/09 03:34:20;;;;;;;7.45;2.55;;;12.00;99.90;;;;;;5094562;28;20032;-59
2022/11/09 03:36:49;;;;;;;9.85;2.03;;;12.00;99.90;;;;;;5094562;28;20043;-59
2022/11/09 03:39:19;;;;;;;8.43;2.40;;;12.00;99.90;;;;;;5094388;28;20119;-59
2022/11/09 03:41:49;;;;;;;8.20;2.25;;;12.00;99.90;;;;;;5094371;28;20044;-59
2022/11/09 03:44:19;;;;;;;11.57;3.35;;;12.00;99.90;;;;;;5094001;28;20047;-59
2022/11/09 03:46:48;;;;;;;7.23;2.13;;;11.90;99.90;;;;;;5076248;28;20048;-59
2022/11/09 03:49:14;;;;;;;6.70;2.00;;;11.90;99.90;;;;;;5094113;28;20083;-59
2022/11/09 03:51:45;;;;;;;7.97;2.38;;;11.90;99.90;;;;;;5093909;28;20091;-60
2022/11/09 03:54:20;;;;;;;10.52;2.30;;;12.00;99.90;;;;;;5096413;28;20093;-59
2022/11/09 03:56:54;;;;;;;14.80;2.33;;;11.90;99.90;;;;;;5114128;28;20040;-59
2022/11/09 03:59:26;;;;;;;7.68;2.20;;;11.90;99.90;;;;;;5114286;28;20385;-60
2022/11/09 04:01:58;;;;;;;8.90;2.30;;;12.00;99.90;;;;;;5114592;28;20040;-59
2022/11/09 04:04:33;;;;;;;12.05;2.30;;;12.00;99.90;;;;;;5114245;28;20054;-59
2022/11/09 04:07:01;;;;;;;15.32;2.75;;;11.90;99.90;;;;;;5114184;28;20481;-59
2022/11/09 04:09:35;;;;;;;8.77;2.67;;;11.90;99.90;;;;;;5114385;28;20464;-59
2022/11/09 04:12:08;;;;;;;10.75;2.20;;;11.90;99.90;;;;;;5113835;28;20101;-59
2022/11/09 04:14:37;;;;;;;8.65;2.90;;;11.90;99.90;;;;;;5113584;28;20028;-59
2022/11/09 04:17:12;;;;;;;8.30;2.10;;;11.80;99.90;;;;;;5113689;28;20075;-60
2022/11/09 04:19:44;;;;;;;16.00;2.65;;;11.90;99.90;;;;;;5113523;28;20031;-59
2022/11/09 04:22:16;;;;;;;11.55;3.33;;;11.90;99.90;;;;;;5114114;28;20042;-59
2022/11/09 04:24:48;;;;;;;6.78;2.00;;;11.90;99.90;;;;;;5113518;28;20036;-59
2022/11/09 04:27:19;;;;;;;11.52;2.35;;;11.90;99.90;;;;;;5113524;28;20036;-59
2022/11/09 04:29:45;;;;;;;7.32;2.47;;;11.80;99.90;;;;;;5113458;28;20115;-59
2022/11/09 04:32:15;;;;;;;7.15;1.85;;;11.80;99.90;;;;;;5113338;28;20039;-59
2022/11/09 04:34:46;;;;;;;10.85;2.20;;;11.80;99.90;;;;;;5113413;28;20031;-59
2022/11/09 04:37:18;;;;;;;14.65;3.88;;;11.80;99.90;;;;;;5113503;28;20798;-59
2022/11/09 04:39:50;;;;;;;13.10;2.50;;;11.80;99.90;;;;;;5113608;28;20040;-58
2022/11/09 04:42:20;;;;;;;8.95;2.15;;;11.80;99.90;;;;;;5113557;28;20035;-59
2022/11/09 04:44:56;;;;;;;8.50;2.10;;;11.80;99.90;;;;;;5113092;28;20040;-59
2022/11/09 04:47:25;;;;;;;9.57;2.20;;;11.80;99.90;;;;;;5113396;28;20504;-59
2022/11/09 04:49:56;;;;;;;9.23;2.03;;;11.80;99.90;;;;;;5113646;28;20039;-59
2022/11/09 04:52:26;;;;;;;8.93;2.05;;;11.80;99.90;;;;;;5112531;28;20054;-59
2022/11/09 04:54:55;;;;;;;;;;;11.80;99.90;;;;;;5112672;28;20035;-59
2022/11/09 04:57:26;;;;;;;9.07;2.08;;;11.70;99.90;;;;;;5113384;28;19919;-60
2022/11/09 04:59:59;;;;;;;12.07;2.38;;;11.80;99.90;;;;;;5112941;28;20039;-59
2022/11/09 05:02:31;;;;;;;10.05;2.63;;;11.70;99.90;;;;;;5112832;28;20046;-59
2022/11/09 05:04:57;;;;;;;15.18;2.65;;;11.80;99.90;;;;;;5113038;28;20122;-59
2022/11/09 05:07:25;;;;;;;10.13;2.10;;;11.80;99.90;;;;;;5112322;28;20374;-58
2022/11/09 05:09:54;;;;;;;15.38;2.83;;;11.80;99.90;;;;;;5112718;28;20512;-59
2022/11/09 05:12:25;;;;;;;8.57;2.00;;;11.90;99.90;;;;;;5112711;28;20398;-59
2022/11/09 05:14:56;;;;;;;10.48;2.10;;;11.90;99.90;;;;;;5112956;28;20549;-59
2022/11/09 05:17:30;;;;;;;11.75;2.72;;;11.80;99.90;;;;;;5112873;28;20397;-60
2022/11/09 05:19:59;;;;;;;11.13;2.60;;;11.80;99.90;;;;;;5113079;28;20028;-59
2022/11/09 05:25:21;;;;;;;9.85;2.38;;;11.90;99.90;;;;;;5113015;28;20044;-59
2022/11/09 05:27:51;;;;;;;11.25;2.30;;;11.90;99.90;;;;;;5112938;28;20042;-59
2022/11/09 05:30:24;;;;;;;9.88;1.90;;;11.80;99.90;;;;;;5112385;28;20035;-59
2022/11/09 05:32:54;;;;;;;11.35;2.05;;;11.90;99.90;;;;;;5113133;28;20036;-59
2022/11/09 05:35:25;;;;;;;12.77;2.25;;;11.80;99.90;;;;;;5110306;28;20554;-59
2022/11/09 05:37:57;;;;;;;10.68;2.45;;;11.90;99.90;;;;;;5092002;28;20040;-59
2022/11/09 05:40:32;;;;;;;8.38;2.50;;;11.90;99.90;;;;;;5093394;28;20047;-59
2022/11/09 05:43:04;;;;;;;8.35;2.55;;;11.90;99.90;;;;;;5112975;28;20357;-59
2022/11/09 05:45:38;;;;;;;9.38;2.78;;;12.00;99.90;;;;;;5111767;28;20039;-59
2022/11/09 05:48:11;;;;;;;8.75;3.00;;;11.90;99.90;;;;;;5112548;28;20081;-59
2022/11/09 05:50:44;;;;;;;12.85;2.17;;;11.90;99.90;;;;;;5112315;28;20078;-59
2022/11/09 05:53:15;;;;;;;11.23;2.38;;;11.90;99.90;;;;;;5111375;28;20040;-59
2022/11/09 05:55:44;;;;;;;11.27;2.95;;;12.00;99.90;;;;;;5110067;28;20397;-59
2022/11/09 05:58:15;;;;;;;12.15;2.53;;;11.90;99.90;;;;;;5112118;28;20383;-59
2022/11/09 06:00:45;;;;;;;8.48;2.38;;;12.00;99.90;;;;;;5112466;28;20035;-59
2022/11/09 06:03:19;;;;;;;8.38;1.80;;;11.90;99.90;;;;;;5112429;28;20044;-59
2022/11/09 06:05:49;;;;;;;12.82;2.60;;;11.90;99.90;;;;;;5112369;28;20044;-59
2022/11/09 06:08:18;;;;;;;5.90;2.30;;;11.90;99.90;;;;;;5112285;28;20123;-59
2022/11/09 06:10:44;;;;;;;10.15;2.55;;;11.90;99.90;;;;;;5111998;28;20035;-59
2022/11/09 06:13:16;;;;;;;10.15;1.95;;;11.90;99.90;;;;;;5112498;28;20096;-59
2022/11/09 06:15:51;;;;;;;10.10;2.10;;;11.80;99.90;;;;;;5112207;28;20648;-59
2022/11/09 06:18:18;;;;;;;11.25;3.10;;;11.90;99.90;;;;;;5112014;28;20068;-59
2022/11/09 06:20:44;;;;;;;12.40;2.70;;;11.80;99.90;;;;;;5111642;28;20048;-59
2022/11/09 06:23:11;;;;;;;12.25;2.47;;;11.80;99.90;;;;;;5112235;28;20039;-59
2022/11/09 06:25:39;;;;;;;11.32;2.78;;;11.80;99.90;;;;;;5112278;28;20075;-59
2022/11/09 06:28:05;;;;;;;7.97;2.20;;;11.80;99.90;;;;;;5112395;28;20039;-59
2022/11/09 06:30:33;;;;;;;9.30;2.03;;;11.80;99.90;;;;;;5111986;28;20385;-59
2022/11/09 06:33:01;;;;;;;12.60;2.58;;;11.80;99.90;;;;;;5112513;28;20043;-60
2022/11/09 06:35:29;;;;;;;6.22;1.88;;;11.70;99.90;;;;;;5112624;28;20036;-59
2022/11/09 06:38:00;;;;;;;13.48;2.80;;;11.70;99.90;;;;;;5112445;28;20039;-59
2022/11/09 06:40:27;;;;;;;9.13;2.42;;;11.70;99.90;;;;;;5112218;28;20048;-59
2022/11/09 06:42:57;;;;;;;14.90;3.03;;;11.70;99.90;;;;;;5112043;28;20111;-59
2022/11/09 06:45:25;;;;;;;13.90;2.42;;;11.70;99.90;;;;;;5111134;28;20058;-59
2022/11/09 06:48:01;;;;;;;9.73;2.70;;;11.70;99.90;;;;;;5111423;28;20489;-59
2022/11/09 06:50:31;;;;;;;12.60;2.08;;;11.70;99.90;;;;;;5112242;28;20035;-59
2022/11/09 06:53:00;;;;;;;7.75;2.00;;;11.60;99.90;;;;;;5111848;28;20058;-59
2022/11/09 06:55:28;;;;;;;;;;;11.60;99.90;;;;;;5112951;28;20393;-59
2022/11/09 06:57:54;;;;;;;8.30;1.98;;;11.60;99.90;;;;;;5115182;28;19919;-59
2022/11/09 07:00:22;;;;;;;11.23;2.42;;;11.70;99.90;;;;;;5115646;28;20863;-60
2022/11/09 07:02:48;;;;;;;10.07;2.42;;;11.60;99.90;;;;;;5115485;28;20741;-59
2022/11/09 07:05:15;;;;;;;11.48;2.45;;;11.70;99.90;;;;;;5116046;28;20751;-59
2022/11/09 07:07:43;;;;;;;9.02;2.20;;;11.70;99.90;;;;;;5115664;28;20046;-59
2022/11/09 07:10:10;;;;;;;7.18;1.88;;;11.70;99.90;;;;;;5096697;28;20043;-59
2022/11/09 07:12:41;;;;;;;5.93;1.63;;;11.70;99.90;;;;;;5115253;28;20469;-59
2022/11/09 07:15:11;;;;;;;14.10;2.30;;;11.60;99.90;;;;;;5096241;28;20627;-59
2022/11/09 07:17:39;;;;;;;9.75;2.53;;;11.60;99.90;;;;;;5114350;28;20032;-59
2022/11/09 07:20:13;;;;;;;8.18;1.92;;;11.60;99.90;;;;;;5114784;28;20043;-59
2022/11/09 07:22:41;;;;;;;9.55;1.98;;;11.70;99.90;;;;;;5115110;28;20046;-59
2022/11/09 07:25:13;;;;;;;7.07;1.60;;;11.60;99.90;;;;;;5115158;28;20080;-59
2022/11/09 07:27:43;;;;;;;9.00;1.77;;;11.70;99.90;;;;;;5115300;28;20031;-58
2022/11/09 07:30:16;;;;;;;12.30;2.00;;;11.70;99.90;;;;;;5115059;28;20036;-59
2022/11/09 07:32:44;;;;;;;6.97;2.55;;;11.70;99.90;;;;;;5115121;28;20093;-59
2022/11/09 07:35:15;;;;;;;9.98;2.15;;;11.70;99.90;;;;;;5114476;28;20074;-60
2022/11/09 07:37:44;;;;;;;8.55;1.90;;;11.70;99.90;;;;;;5114759;28;20050;-60
2022/11/09 07:40:10;;;;;;;;;;;11.70;99.90;;;;;;5114651;28;20043;-60
2022/11/09 07:42:39;;;;;;;9.25;2.20;;;11.80;99.90;;;;;;5114607;28;19915;-60
2022/11/09 07:45:09;;;;;;;10.63;2.10;;;11.70;99.90;;;;;;5114427;28;20047;-60
2022/11/09 07:47:36;;;;;;;6.00;2.00;;;11.70;99.90;;;;;;5114441;28;20054;-60
2022/11/09 07:50:05;;;;;;;10.93;2.40;;;11.80;99.90;;;;;;5114075;28;20044;-60
2022/11/09 07:52:32;;;;;;;10.10;2.30;;;11.80;99.90;;;;;;5114071;28;20066;-60
2022/11/09 07:55:00;;;;;;;10.30;2.42;;;11.80;99.90;;;;;;5114247;28;20035;-60
2022/11/09 07:57:27;;;;;;;11.38;2.53;;;11.90;99.90;;;;;;5113991;28;20132;-59
2022/11/09 07:59:53;;;;;;;9.85;2.30;;;11.90;99.90;;;;;;5114254;28;20046;-60
2022/11/09 08:02:24;;;;;;;12.60;3.38;;;12.10;99.90;;;;;;5113879;28;20051;-60
2022/11/09 08:04:55;;;;;;;8.05;2.13;;;12.30;99.90;;;;;;5113926;28;20054;-60
2022/11/09 08:07:23;;;;;;;;;;;12.40;99.90;;;;;;5113536;28;20058;-60
2022/11/09 08:09:59;;;;;;;7.03;1.90;;;12.50;99.90;;;;;;5113458;28;19915;-60
2022/11/09 08:12:27;;;;;;;10.20;2.22;;;12.70;99.90;;;;;;5113806;28;20207;-60
2022/11/09 08:15:08;;;;;;;10.68;2.10;;;12.80;99.90;;;;;;5111445;28;20048;-61
2022/11/09 08:17:42;;;;;;;14.43;2.35;;;13.00;99.90;;;;;;5113048;28;20534;-60
2022/11/09 08:20:12;;;;;;;8.80;2.40;;;13.20;99.90;;;;;;5113752;28;20474;-60
2022/11/09 08:22:44;;;;;;;11.55;3.35;;;13.30;99.90;;;;;;5094900;28;20059;-60
2022/11/09 08:25:20;;;;;;;13.35;2.90;;;13.60;99.90;;;;;;5095177;28;20055;-60
2022/11/09 08:27:58;;;;;;;11.18;2.20;;;13.60;99.90;;;;;;5113484;28;20180;-60
2022/11/09 08:30:35;;;;;;;11.05;1.95;;;13.70;99.90;;;;;;5113150;28;20566;-60
2022/11/09 08:33:18;;;;;;;12.85;3.25;;;13.70;99.90;;;;;;5112008;28;20036;-59
2022/11/09 08:35:55;;;;;;;12.88;2.13;;;13.80;99.90;;;;;;5112968;28;20389;-59
2022/11/09 08:38:32;;;;;;;8.00;1.95;;;13.70;99.90;;;;;;5113177;28;20086;-60
2022/11/09 08:41:10;;;;;;;9.23;2.30;;;13.80;99.90;;;;;;5113100;28;20040;-61
2022/11/09 08:43:52;;;;;;;13.75;2.05;;;13.90;99.90;;;;;;5113033;28;20473;-60
2022/11/09 08:46:34;;;;;;;13.10;2.80;;;13.90;99.90;;;;;;5113056;28;20078;-60
2022/11/09 08:49:15;;;;;;;10.55;2.80;;;13.90;99.90;;;;;;5113263;28;20043;-60
2022/11/09 08:51:54;;;;;;;8.00;2.22;;;13.90;99.90;;;;;;5112755;28;20047;-60
2022/11/09 08:54:28;;;;;;;10.80;2.80;;;13.90;99.90;;;;;;5112756;28;20087;-60
2022/11/09 08:57:09;;;;;;;11.10;2.50;;;14.00;99.90;;;;;;5112873;28;20075;-60
2022/11/09 08:59:48;;;;;;;8.20;2.20;;;14.00;99.90;;;;;;5112700;28;20031;-60
2022/11/09 09:02:26;;;;;;;8.15;2.50;;;13.90;99.90;;;;;;5112769;28;20477;-60
2022/11/09 09:05:09;;;;;;;11.43;2.63;;;13.90;99.90;;;;;;5113044;28;20805;-60
2022/11/09 09:07:43;;;;;;;8.50;2.05;;;13.90;99.90;;;;;;5112723;28;20472;-59
2022/11/09 09:10:22;;;;;;;10.60;2.50;;;13.90;99.90;;;;;;5094317;28;20466;-59
2022/11/09 09:13:00;;;;;;;12.68;2.60;;;13.90;99.90;;;;;;5112534;28;20043;-60
2022/11/09 09:15:35;;;;;;;12.98;2.33;;;14.00;99.90;;;;;;5112428;28;20071;-60
2022/11/09 09:18:19;;;;;;;15.30;2.20;;;14.00;99.90;;;;;;5112448;28;20040;-59
2022/11/09 09:21:03;;;;;;;8.50;2.33;;;13.90;99.90;;;;;;5111777;28;20045;-59
2022/11/09 09:23:42;;;;;;;8.43;2.65;;;13.90;99.90;;;;;;5111982;28;20054;-59
2022/11/09 09:26:18;;;;;;;9.90;1.85;;;13.90;99.90;;;;;;5075027;28;20426;-59
2022/11/09 09:28:57;;;;;;;9.40;2.40;;;13.90;99.90;;;;;;5091804;28;20055;-60
2022/11/09 09:31:38;;;;;;;11.27;2.60;;;13.90;99.90;;;;;;5091791;28;20043;-59
2022/11/09 09:34:18;;;;;;;12.80;2.42;;;13.80;99.90;;;;;;5091414;28;20036;-60
2022/11/09 09:37:00;;;;;;;10.32;2.67;;;13.80;99.90;;;;;;5091601;28;20043;-59
2022/11/09 09:39:30;;;;;;;13.10;2.50;;;13.80;99.90;;;;;;5091812;28;20036;-61
2022/11/09 09:42:16;;;;;;;10.40;2.13;;;13.80;99.90;;;;;;5091491;28;20044;-60
2022/11/09 09:45:02;;;;;;;8.52;2.20;;;13.80;99.90;;;;;;5091670;28;20040;-60
2022/11/09 09:47:57;;;;;;;10.80;2.47;;;13.80;99.90;;;;;;5091728;28;20032;-60
2022/11/09 09:50:50;;;;;;;12.20;2.47;;;13.90;99.90;;;;;;5091700;28;20051;-60
2022/11/09 09:53:47;;;;;;;13.80;2.23;;;13.90;99.90;;;;;;5054200;28;20529;-60
2022/11/09 09:56:28;;;;;;;13.02;3.40;;;13.90;99.90;;;;;;5071366;28;20112;-60
2022/11/09 09:59:21;;;;;;;8.10;1.70;;;13.90;99.90;;;;;;5070446;28;20037;-59
2022/11/09 10:02:02;;;;;;;10.35;2.45;;;13.90;99.90;;;;;;5071394;28;20479;-60
2022/11/09 10:04:43;;;;;;;11.88;2.40;;;14.00;99.90;;;;;;5071874;28;20051;-60
2022/11/09 10:07:27;;;;;;;11.43;2.72;;;14.00;99.90;;;;;;5071856;28;20048;-60
2022/11/09 10:10:32;;;;;;;11.13;2.78;;;14.10;99.90;;;;;;5071438;28;20497;-59
2022/11/09 10:13:45;;;;;;;13.48;3.53;;;14.00;99.90;;;;;;5071343;28;20391;-61
2022/11/09 10:16:58;;;;;;;10.75;2.67;;;14.00;99.90;;;;;;5070822;28;20028;-60
2022/11/09 10:19:56;;;;;;;9.93;2.25;;;14.00;99.90;;;;;;5071226;28;20120;-60
2022/11/09 10:23:06;;;;;;;8.43;2.47;;;14.10;99.90;;;;;;5071654;28;20036;-60
2022/11/09 10:25:45;;;;;;;13.73;3.33;;;14.10;99.90;;;;;;4989880;28;20528;-60
2022/11/09 10:28:28;;;;;;;10.88;2.67;;;14.10;99.90;;;;;;4989560;28;20045;-59
2022/11/09 10:31:20;;;;;;;10.60;2.38;;;14.10;99.90;;;;;;4991776;28;20046;-59
2022/11/09 10:33:59;;;;;;;15.63;3.40;;;14.20;99.90;;;;;;4993090;28;20045;-59
2022/11/09 10:36:56;;;;;;;16.88;2.92;;;14.20;99.90;;;;;;4992833;28;20053;-59
2022/11/09 10:39:39;;;;;;;8.05;3.03;;;14.30;99.90;;;;;;4993435;28;20070;-60
2022/11/09 10:42:19;;;;;;;12.73;3.25;;;14.20;99.90;;;;;;4993246;28;20057;-60
2022/11/09 10:44:56;;;;;;;10.70;2.70;;;14.20;99.90;;;;;;4993353;28;20128;-60
2022/11/09 10:47:48;;;;;;;14.45;2.50;;;14.10;99.90;;;;;;4993357;28;20052;-60
2022/11/09 10:50:46;;;;;;;12.20;2.85;;;14.10;99.90;;;;;;4993309;28;20057;-60
2022/11/09 10:53:26;;;;;;;14.43;3.35;;;14.00;99.90;;;;;;4991645;28;20057;-60
2022/11/09 10:56:22;;;;;;;13.02;2.97;;;14.00;99.90;;;;;;4993289;28;20129;-60
2022/11/09 10:59:02;;;;;;;9.75;2.85;;;14.00;99.90;;;;;;5012621;28;20567;-60
2022/11/09 11:01:43;;;;;;;14.10;3.58;;;14.00;99.90;;;;;;5026122;28;20071;-60
2022/11/09 11:04:41;;;;;;;9.00;2.75;;;14.00;99.90;;;;;;5073952;28;20040;-60
2022/11/09 11:07:29;;;;;;;9.30;2.95;;;14.00;99.90;;;;;;5074540;28;20060;-60
2022/11/09 11:10:19;;;;;;;11.00;2.58;;;14.00;99.90;;;;;;5074095;28;20033;-60
2022/11/09 11:13:05;;;;;;;9.95;2.70;;;14.00;99.90;;;;;;5074398;28;20045;-59
2022/11/09 11:15:48;;;;;;;12.23;3.00;;;13.90;99.90;;;;;;5074057;28;20040;-60
2022/11/09 11:18:34;;;;;;;11.48;2.30;;;14.00;99.90;;;;;;5073619;28;20033;-60
2022/11/09 11:21:25;;;;;;;9.48;2.70;;;13.90;99.90;;;;;;5074018;28;20046;-60
2022/11/09 11:24:25;;;;;;;10.98;2.67;;;13.90;99.90;;;;;;5074422;28;20049;-60
2022/11/09 11:27:15;;;;;;;14.85;3.28;;;13.90;99.90;;;;;;5074194;28;20037;-60
2022/11/09 11:30:21;;;;;;;10.95;2.53;;;13.90;99.90;;;;;;5073345;28;20037;-60
2022/11/09 11:33:04;;;;;;;9.45;2.33;;;13.90;99.90;;;;;;5073639;28;20132;-60
2022/11/09 11:36:08;;;;;;;9.60;2.97;;;13.90;99.90;;;;;;5073848;28;20170;-60
2022/11/09 11:39:10;;;;;;;9.05;2.60;;;13.90;99.90;;;;;;5074025;28;20044;-60
2022/11/09 11:41:59;;;;;;;12.60;2.30;;;13.90;99.90;;;;;;5073009;28;20032;-60
2022/11/09 11:44:40;;;;;;;8.95;2.53;;;13.90;99.90;;;;;;5073318;28;20040;-59
2022/11/09 11:47:33;;;;;;;10.40;2.97;;;13.90;99.90;;;;;;5073766;28;20067;-59
2022/11/09 11:50:36;;;;;;;10.45;2.65;;;13.90;99.90;;;;;;5073619;28;20032;-60
2022/11/09 11:53:36;;;;;;;9.95;2.50;;;13.90;99.90;;;;;;5090893;28;20052;-59
2022/11/09 11:56:41;;;;;;;11.07;2.92;;;14.00;99.90;;;;;;5093897;28;20059;-60
2022/11/09 11:59:42;;;;;;;10.35;2.80;;;14.00;99.90;;;;;;5093537;28;20375;-60
2022/11/09 12:02:35;;;;;;;10.88;3.08;;;14.00;99.90;;;;;;5093681;28;20040;-59
2022/11/09 12:05:38;;;;;;;10.18;2.45;;;14.10;99.90;;;;;;5093417;28;20136;-60
2022/11/09 12:08:26;;;;;;;9.85;3.55;;;14.10;99.90;;;;;;5093666;28;20036;-60
2022/11/09 12:11:34;;;;;;;8.68;2.70;;;14.10;99.90;;;;;;5092741;28;20494;-60
2022/11/09 12:14:29;;;;;;;11.43;2.53;;;14.00;99.90;;;;;;5092948;28;20528;-60
2022/11/09 12:17:38;;;;;;;14.15;3.30;;;14.00;99.90;;;;;;5093108;28;20103;-60
2022/11/09 12:20:43;;;;;;;10.98;3.45;;;14.00;99.90;;;;;;5093039;28;20040;-60
2022/11/09 12:23:52;;;;;;;15.75;3.58;;;14.00;99.90;;;;;;5093463;28;20399;-60
2022/11/09 12:26:59;;;;;;;11.98;3.13;;;14.00;99.90;;;;;;5092904;28;20545;-60
2022/11/09 12:29:49;;;;;;;13.77;3.42;;;13.90;99.90;;;;;;5091360;28;20047;-59
2022/11/09 12:32:48;;;;;;;17.63;3.22;;;13.90;99.90;;;;;;5092832;28;20040;-60
2022/11/09 12:35:45;;;;;;;13.30;3.78;;;13.90;99.90;;;;;;5092841;28;20044;-60
2022/11/09 12:38:37;;;;;;;8.63;2.78;;;13.90;99.90;;;;;;5092937;28;20111;-60
2022/11/09 12:41:31;;;;;;;11.45;3.15;;;13.90;99.90;;;;;;5092673;28;20044;-60
2022/11/09 12:44:08;;;;;;;12.23;3.05;;;13.90;99.90;;;;;;5092462;28;20044;-60
2022/11/09 12:47:01;;;;;;;9.52;2.88;;;13.90;99.90;;;;;;5092740;28;20394;-60
2022/11/09 12:49:39;;;;;;;13.73;3.60;;;13.90;99.90;;;;;;5092446;28;20496;-60
2022/11/09 12:52:15;;;;;;;12.20;3.30;;;14.00;99.90;;;;;;5087103;28;20055;-60
2022/11/09 12:54:51;;;;;;;10.20;2.65;;;14.00;99.90;;;;;;5071480;28;20037;-60
2022/11/09 12:57:32;;;;;;;16.13;2.78;;;14.00;99.90;;;;;;5072333;28;20553;-60
2022/11/09 13:00:05;;;;;;;11.55;2.60;;;13.90;99.90;;;;;;5072598;28;20041;-59
2022/11/09 13:02:52;;;;;;;9.55;2.63;;;13.90;99.90;;;;;;5072253;28;20553;-60
2022/11/09 13:05:41;;;;;;;11.07;3.60;;;13.80;99.90;;;;;;5071823;28;20557;-60
2022/11/09 13:08:27;;;;;;;14.68;3.22;;;13.70;99.90;;;;;;5072203;28;20055;-60
2022/11/09 13:11:36;;;;;;;7.90;2.22;;;13.50;99.90;;;;;;5071957;28;20041;-60
2022/11/09 13:14:37;;;;;;;9.48;3.25;;;13.30;99.90;;;;;;4971242;28;20114;-60
2022/11/09 13:17:32;;;;;;;12.52;3.50;;;13.10;99.90;;;;;;4971226;28;20529;-60
2022/11/09 13:20:42;;;;;;;12.27;3.40;;;12.90;99.90;;;;;;4971286;28;20047;-60
2022/11/09 13:23:41;;;;;;;12.07;2.63;;;12.90;99.90;;;;;;4970963;28;20043;-59
2022/11/09 13:26:43;;;;;;;8.50;2.63;;;12.80;99.90;;;;;;4970806;28;20031;-60
2022/11/09 13:29:48;;;;;;;15.13;2.50;;;12.80;99.90;;;;;;4970592;28;20043;-60
2022/11/09 13:32:31;;;;;;;8.20;2.60;;;12.70;99.90;;;;;;4970878;28;20042;-60
2022/11/09 13:35:25;;;;;;;10.50;3.13;;;12.70;99.90;;;;;;4971124;28;20122;-60
2022/11/09 13:38:05;;;;;;;9.75;2.72;;;12.60;99.90;;;;;;4971051;28;20557;-60